Time;durP1;ratioP1;P1;durP2;ratioP2;P2;SDS_P1;SDS_P2;PMS_P1;PMS_P2;Temp;Humidity;BMP_temperature;BMP_pressure;BME280_temperature;BME280_humidity;BME280_pressure;Samples;Min_cycle;Max_cycle;Signal;HPM_P1;HPM_P2
2023/02/09 00:01:26;;;;;;;28.30;12.25;;;;;;;-7.78;100.00;98758.25;5058027;28;20702;-59
2023/02/09 00:03:53;;;;;;;25.45;11.93;;;;;;;-7.77;100.00;98758.16;5051898;28;20037;-60
2023/02/09 00:06:22;;;;;;;26.30;12.25;;;;;;;-7.79;100.00;98760.03;5058876;28;20041;-59
2023/02/09 00:08:49;;;;;;;24.85;12.35;;;;;;;-7.79;100.00;98761.81;5051759;28;20079;-59
2023/02/09 00:13:21;;;;;;;28.42;13.88;;;;;;;-7.77;100.00;98754.69;5061394;28;20445;-59
2023/02/09 00:14:09;;;;;;;22.30;12.00;;;;;;;-7.73;100.00;98756.16;5063282;28;20036;-58
2023/02/09 00:16:36;;;;;;;23.95;11.13;;;;;;;-7.86;100.00;98743.81;5060337;28;20579;-59
2023/02/09 00:19:03;;;;;;;25.92;12.00;;;;;;;-7.92;100.00;98751.28;5061060;28;20041;-59
2023/02/09 00:21:29;;;;;;;28.77;11.50;;;;;;;-7.95;100.00;98739.16;5056115;28;20553;-59
2023/02/09 00:23:57;;;;;;;28.15;11.95;;;;;;;-7.97;100.00;98736.63;5058401;28;20781;-60
2023/02/09 00:26:24;;;;;;;23.38;11.35;;;;;;;-8.01;100.00;98731.66;5060092;28;20557;-60
2023/02/09 00:28:51;;;;;;;24.33;12.68;;;;;;;-8.01;100.00;98735.16;5060146;28;20819;-60
2023/02/09 00:31:19;;;;;;;27.92;11.40;;;;;;;-8.01;100.00;98729.88;5058952;28;20053;-60
2023/02/09 00:33:45;;;;;;;31.58;11.75;;;;;;;-8.05;100.00;98731.03;5052737;28;20037;-59
2023/02/09 00:36:13;;;;;;;22.05;11.13;;;;;;;-8.05;100.00;98732.81;5054633;28;20674;-60
2023/02/09 00:38:41;;;;;;;25.58;11.85;;;;;;;-7.99;100.00;98728.03;5059921;28;20033;-60
2023/02/09 00:41:08;;;;;;;26.52;13.55;;;;;;;-7.36;100.00;98724.78;5052834;28;20068;-60
2023/02/09 00:43:36;;;;;;;25.27;12.10;;;;;;;-7.38;98.66;98723.19;5055814;28;20478;-60
2023/02/09 00:46:02;;;;;;;27.50;11.73;;;;;;;-7.75;97.37;98716.81;5059042;28;20044;-58
2023/02/09 00:48:29;;;;;;;21.25;10.88;;;;;;;-7.79;100.00;98720.59;5060096;28;21256;-59
2023/02/09 00:50:55;;;;;;;26.00;11.50;;;;;;;-7.86;97.71;98722.78;5056199;28;20084;-59
2023/02/09 00:53:22;;;;;;;21.88;10.88;;;;;;;-8.12;99.83;98716.59;5063044;28;20041;-59
2023/02/09 00:55:49;;;;;;;25.52;11.07;;;;;;;-8.41;100.00;98722.78;5060222;28;20049;-59
2023/02/09 00:58:16;;;;;;;20.33;10.50;;;;;;;-8.46;100.00;98716.13;5061595;28;20052;-60
2023/02/09 01:00:43;;;;;;;22.60;10.40;;;;;;;-8.40;100.00;98724.47;5059484;28;20037;-60
2023/02/09 01:03:10;;;;;;;27.42;11.98;;;;;;;-8.30;100.00;98722.09;5063078;28;20132;-60
2023/02/09 01:05:39;;;;;;;23.42;11.55;;;;;;;-8.29;100.00;98723.78;5059820;28;20119;-59
2023/02/09 01:08:05;;;;;;;24.02;12.18;;;;;;;-8.35;100.00;98724.19;5058492;28;20033;-59
2023/02/09 01:10:32;;;;;;;18.58;10.10;;;;;;;-8.54;100.00;98719.28;5058335;28;20037;-58
2023/02/09 01:12:58;;;;;;;20.65;10.38;;;;;;;-8.58;100.00;98721.28;5059423;28;20556;-60
2023/02/09 01:15:27;;;;;;;25.58;11.77;;;;;;;-8.44;100.00;98724.78;5061080;28;20779;-60
2023/02/09 01:17:53;;;;;;;25.77;12.20;;;;;;;-8.62;100.00;98727.66;5059335;28;20126;-59
2023/02/09 01:20:20;;;;;;;21.70;11.13;;;;;;;-8.69;100.00;98723.72;5058824;28;20140;-59
2023/02/09 01:22:46;;;;;;;22.30;11.02;;;;;;;-8.66;100.00;98720.91;5055729;28;20080;-60
2023/02/09 01:25:13;;;;;;;20.48;11.57;;;;;;;-8.58;100.00;98723.03;5059366;28;20071;-59
2023/02/09 01:27:41;;;;;;;25.20;12.40;;;;;;;-8.56;100.00;98727.25;5062830;28;20086;-59
2023/02/09 01:30:08;;;;;;;22.88;11.35;;;;;;;-8.55;100.00;98728.94;5055544;28;20033;-59
2023/02/09 01:32:35;;;;;;;24.65;11.15;;;;;;;-8.60;100.00;98725.75;5063224;28;20064;-59
2023/02/09 01:35:03;;;;;;;23.40;10.75;;;;;;;-8.68;100.00;98717.50;5061428;28;20060;-60
2023/02/09 01:37:29;;;;;;;25.80;10.73;;;;;;;-8.69;100.00;98716.69;5061452;28;20055;-60
2023/02/09 01:39:56;;;;;;;23.60;11.82;;;;;;;-8.60;100.00;98711.81;5059867;28;20094;-59
2023/02/09 01:42:22;;;;;;;25.38;12.60;;;;;;;-8.57;100.00;98706.34;5061662;28;20041;-59
2023/02/09 01:44:58;;;;;;;25.92;13.45;;;;;;;-8.65;100.00;98723.44;5064491;28;20040;-57
2023/02/09 01:47:24;;;;;;;23.02;10.68;;;;;;;-8.38;100.00;98721.75;5061109;28;20076;-59
2023/02/09 01:49:51;;;;;;;22.52;10.85;;;;;;;-8.56;100.00;98716.75;5060135;28;20056;-60
2023/02/09 01:52:23;;;;;;;22.80;11.27;;;;;;;-8.55;100.00;98714.97;5056375;28;20546;-59
2023/02/09 01:55:00;;;;;;;24.08;11.00;;;;;;;-8.66;100.00;98710.41;5060200;28;20079;-60
2023/02/09 01:57:31;;;;;;;23.45;11.23;;;;;;;-8.54;100.00;98706.16;5060840;28;20033;-60
2023/02/09 02:00:01;;;;;;;;;;;;;;;-8.58;100.00;98713.38;5059450;28;20059;-60
2023/02/09 02:02:41;;;;;;;20.17;9.80;;;;;;;-8.78;100.00;98712.00;5056762;28;19920;-59
2023/02/09 02:05:09;;;;;;;21.42;10.27;;;;;;;-8.96;100.00;98717.44;5063832;28;20119;-60
2023/02/09 02:07:46;;;;;;;25.67;11.20;;;;;;;-8.99;100.00;98707.16;5058215;28;20253;-59
2023/02/09 02:10:12;;;;;;;21.95;8.85;;;;;;;-8.99;100.00;98706.31;5057976;28;20562;-59
2023/02/09 02:12:40;;;;;;;25.02;12.20;;;;;;;-8.72;100.00;98701.13;5056975;28;20044;-58
2023/02/09 02:15:10;;;;;;;25.83;13.10;;;;;;;-8.57;100.00;98699.31;5062255;28;20052;-60
2023/02/09 02:17:42;;;;;;;20.67;11.75;;;;;;;-8.48;100.00;98698.69;5054072;28;20583;-60
2023/02/09 02:20:11;;;;;;;24.17;11.63;;;;;;;-8.64;100.00;98701.47;5061714;28;20531;-59
2023/02/09 02:22:57;;;;;;;27.88;12.05;;;;;;;-8.72;100.00;98697.63;5052413;28;20074;-60
2023/02/09 02:25:46;;;;;;;22.42;11.88;;;;;;;-8.83;100.00;98701.78;5058381;28;20621;-60
2023/02/09 02:28:30;;;;;;;19.20;10.27;;;;;;;-8.83;100.00;98696.53;5052294;28;20108;-60
2023/02/09 02:31:16;;;;;;;23.02;12.23;;;;;;;-8.68;100.00;98704.38;5054943;28;20045;-60
2023/02/09 02:34:04;;;;;;;24.38;12.82;;;;;;;-8.75;100.00;98703.94;5053387;28;20037;-58
2023/02/09 02:36:43;;;;;;;22.35;11.82;;;;;;;-8.92;100.00;98707.63;5053798;28;20087;-59
2023/02/09 02:39:17;;;;;;;22.08;10.88;;;;;;;-9.04;100.00;98706.56;5061687;28;20485;-59
2023/02/09 02:44:47;;;;;;;23.90;12.02;;;;;;;-9.11;100.00;98707.91;5058093;28;20060;-60
2023/02/09 02:47:19;;;;;;;20.08;10.63;;;;;;;-9.09;100.00;98699.00;5062961;28;20044;-56
2023/02/09 02:50:14;;;;;;;22.85;10.05;;;;;;;-8.99;100.00;98703.69;5056309;28;20040;-59
2023/02/09 02:52:44;;;;;;;25.30;10.05;;;;;;;-8.93;100.00;98695.41;5051042;28;20060;-59
2023/02/09 02:55:14;;;;;;;24.17;12.20;;;;;;;-8.91;100.00;98690.91;5056889;28;20043;-59
2023/02/09 02:57:46;;;;;;;20.75;12.25;;;;;;;-8.98;100.00;98686.97;5054913;28;20142;-57
2023/02/09 03:00:17;;;;;;;25.70;11.45;;;;;;;-8.99;100.00;98677.44;5053539;28;20076;-59
2023/02/09 03:02:47;;;;;;;;;;;;;;;-9.04;100.00;98675.06;5057696;28;20147;-59
2023/02/09 03:05:16;;;;;;;23.88;11.43;;;;;;;-8.93;100.00;98663.91;5055309;28;20607;-60
2023/02/09 03:07:43;;;;;;;27.02;11.43;;;;;;;-8.43;100.00;98663.41;5055863;28;20060;-60
2023/02/09 03:10:37;;;;;;;27.30;10.60;;;;;;;-8.48;100.00;98667.16;5061983;28;20040;-60
2023/02/09 03:13:30;;;;;;;27.52;13.45;;;;;;;-8.15;100.00;98672.94;5051820;28;20041;-60
2023/02/09 03:16:33;;;;;;;24.40;13.23;;;;;;;-8.49;99.08;98677.75;5053497;28;20044;-59
2023/02/09 03:19:18;;;;;;;19.90;11.10;;;;;;;-8.73;100.00;98672.31;5059177;28;20903;-58
2023/02/09 03:22:11;;;;;;;22.15;10.13;;;;;;;-8.72;100.00;98676.63;5058976;28;20606;-60
2023/02/09 03:24:44;;;;;;;20.55;10.73;;;;;;;-9.06;100.00;98680.44;5049658;28;20060;-58
2023/02/09 03:27:40;;;;;;;24.70;11.93;;;;;;;-9.02;100.00;98683.72;5054899;28;20494;-59
2023/02/09 03:30:10;;;;;;;24.17;10.73;;;;;;;-9.01;100.00;98682.75;5057990;28;20491;-59
2023/02/09 03:32:39;;;;;;;24.88;12.30;;;;;;;-9.04;100.00;98686.44;5058557;28;20041;-59
2023/02/09 03:35:07;;;;;;;28.50;14.13;;;;;;;-8.81;100.00;98681.53;5053598;28;20048;-57
2023/02/09 03:37:34;;;;;;;22.67;12.63;;;;;;;-8.61;100.00;98684.69;5053797;28;20051;-59
2023/02/09 03:40:00;;;;;;;25.63;12.35;;;;;;;-8.97;100.00;98678.16;5058803;28;20508;-59
2023/02/09 03:42:27;;;;;;;26.88;13.00;;;;;;;-9.09;100.00;98680.63;5052627;28;20066;-58
2023/02/09 03:44:53;;;;;;;28.55;12.25;;;;;;;-9.09;100.00;98677.16;5053765;28;20124;-59
2023/02/09 03:47:20;;;;;;;21.95;10.68;;;;;;;-9.21;100.00;98676.13;5052486;28;20121;-59
2023/02/09 03:49:46;;;;;;;26.45;13.43;;;;;;;-8.76;100.00;98678.63;5054292;28;20064;-58
2023/02/09 03:52:14;;;;;;;21.85;11.95;;;;;;;-8.66;100.00;98678.88;5050269;28;20041;-59
2023/02/09 03:54:41;;;;;;;24.05;11.40;;;;;;;-8.75;100.00;98680.28;5054479;28;20128;-58
2023/02/09 03:57:09;;;;;;;24.60;12.30;;;;;;;-8.84;100.00;98679.09;5063562;28;20040;-59
2023/02/09 03:59:36;;;;;;;25.65;12.07;;;;;;;-8.72;100.00;98674.00;5051313;28;20648;-59
2023/02/09 04:02:06;;;;;;;26.08;11.10;;;;;;;-8.55;100.00;98673.78;5051618;28;20097;-57
2023/02/09 04:04:33;;;;;;;29.80;12.98;;;;;;;-8.71;100.00;98673.09;5052828;28;20071;-59
2023/02/09 04:06:59;;;;;;;30.50;13.20;;;;;;;-8.76;100.00;98676.84;5054926;28;20067;-59
2023/02/09 04:09:26;;;;;;;24.40;10.95;;;;;;;-8.68;100.00;98676.34;5049329;28;20033;-59
2023/02/09 04:11:53;;;;;;;26.52;14.02;;;;;;;-8.61;100.00;98676.81;5056526;28;20075;-59
2023/02/09 04:14:20;;;;;;;22.85;13.35;;;;;;;-8.50;100.00;98674.31;5048266;28;20045;-59
2023/02/09 04:16:46;;;;;;;27.63;15.07;;;;;;;-8.16;100.00;98675.69;5055978;28;20418;-59
2023/02/09 04:19:13;;;;;;;21.02;11.85;;;;;;;-8.11;100.00;98671.00;5051506;28;20062;-59
2023/02/09 04:21:39;;;;;;;30.25;13.68;;;;;;;-7.98;100.00;98673.63;5059000;28;20072;-59
2023/02/09 04:24:06;;;;;;;30.45;14.23;;;;;;;-7.86;100.00;98680.72;5054293;28;20055;-59
2023/02/09 04:26:33;;;;;;;31.83;14.60;;;;;;;-7.59;100.00;98678.97;5055050;28;20051;-59
2023/02/09 04:29:00;;;;;;;23.95;12.55;;;;;;;-7.65;100.00;98680.22;5057236;28;20075;-59
2023/02/09 04:31:26;;;;;;;23.42;12.15;;;;;;;-7.71;100.00;98680.63;5061051;28;20033;-59
2023/02/09 04:33:53;;;;;;;29.35;13.70;;;;;;;-7.78;100.00;98684.63;5069145;28;20060;-58
2023/02/09 04:36:22;;;;;;;26.35;14.18;;;;;;;-7.64;100.00;98681.03;5055721;28;20052;-59
2023/02/09 04:38:49;;;;;;;26.58;14.38;;;;;;;-7.75;99.89;98680.00;5058625;28;20042;-60
2023/02/09 04:41:16;;;;;;;25.58;13.13;;;;;;;-7.76;100.00;98678.31;5056803;28;20048;-59
2023/02/09 04:43:44;;;;;;;30.52;14.20;;;;;;;-7.77;100.00;98681.91;5063113;28;20040;-59
2023/02/09 04:46:15;;;;;;;26.45;13.60;;;;;;;-7.94;100.00;98676.88;5057677;28;20121;-60
2023/02/09 04:48:43;;;;;;;26.48;14.55;;;;;;;-8.04;100.00;98677.50;5067151;28;20032;-59
2023/02/09 04:51:09;;;;;;;32.35;14.73;;;;;;;-8.12;100.00;98675.38;5063908;28;20093;-59
2023/02/09 04:53:36;;;;;;;27.15;12.68;;;;;;;-8.02;100.00;98672.16;5057502;28;20044;-60
2023/02/09 04:56:03;;;;;;;32.08;15.75;;;;;;;-7.82;100.00;98667.38;5057024;28;20106;-59
2023/02/09 05:01:19;;;;;;;29.58;13.45;;;;;;;-7.60;100.00;98664.97;5063711;28;20040;-60
2023/02/09 05:03:46;;;;;;;30.40;13.75;;;;;;;-7.39;100.00;98658.34;5059459;28;20086;-60
2023/02/09 05:06:13;;;;;;;35.33;14.30;;;;;;;-7.44;100.00;98661.31;5061778;28;20040;-60
2023/02/09 05:08:39;;;;;;;31.83;13.52;;;;;;;-7.44;100.00;98663.94;5064397;28;20028;-60
2023/02/09 05:11:05;;;;;;;30.13;14.32;;;;;;;-7.21;100.00;98666.75;5065246;28;20072;-60
2023/02/09 05:13:32;;;;;;;31.38;16.35;;;;;;;-7.33;98.01;98663.19;5057290;28;20040;-60
2023/02/09 05:15:59;;;;;;;26.17;13.18;;;;;;;-7.51;99.78;98666.13;5061659;28;20685;-60
2023/02/09 05:18:25;;;;;;;35.08;15.55;;;;;;;-7.45;100.00;98659.59;5056078;28;20041;-60
2023/02/09 05:20:52;;;;;;;31.73;15.23;;;;;;;-7.39;100.00;98658.34;5060488;28;20124;-59
2023/02/09 05:23:19;;;;;;;31.05;16.30;;;;;;;-7.34;100.00;98656.25;5058164;28;20048;-59
2023/02/09 05:25:46;;;;;;;35.22;16.90;;;;;;;-7.31;100.00;98656.03;5055513;28;20039;-58
2023/02/09 05:28:13;;;;;;;45.30;19.58;;;;;;;-7.33;100.00;98655.28;5060259;28;20123;-59
2023/02/09 05:30:40;;;;;;;35.85;17.05;;;;;;;-7.31;100.00;98659.50;5055918;28;20045;-59
2023/02/09 05:33:06;;;;;;;25.88;13.70;;;;;;;-7.34;100.00;98666.78;5060378;28;20048;-58
2023/02/09 05:35:33;;;;;;;32.92;16.95;;;;;;;-7.34;100.00;98672.88;5053683;28;20127;-57
2023/02/09 05:37:59;;;;;;;31.15;15.27;;;;;;;-7.25;100.00;98675.81;5060736;28;20504;-60
2023/02/09 05:40:26;;;;;;;33.20;16.95;;;;;;;-7.21;100.00;98672.03;5056278;28;20037;-59
2023/02/09 05:42:53;;;;;;;33.13;16.45;;;;;;;-7.22;100.00;98676.44;5059270;28;20148;-59
2023/02/09 05:45:22;;;;;;;34.53;16.20;;;;;;;-7.18;100.00;98683.16;5058665;28;20120;-60
2023/02/09 05:47:48;;;;;;;32.83;15.38;;;;;;;-7.20;100.00;98682.44;5059170;28;20821;-60
2023/02/09 05:50:15;;;;;;;28.80;14.75;;;;;;;-7.35;100.00;98683.50;5060209;28;20052;-60
2023/02/09 05:52:41;;;;;;;32.10;13.85;;;;;;;-7.32;100.00;98681.50;5054868;28;20049;-60
2023/02/09 05:55:08;;;;;;;28.98;14.27;;;;;;;-7.40;99.86;98683.81;5064896;28;20051;-60
2023/02/09 05:57:34;;;;;;;26.38;12.80;;;;;;;-7.41;100.00;98684.75;5057556;28;20416;-60
2023/02/09 06:00:03;;;;;;;29.75;14.80;;;;;;;-7.41;99.91;98683.94;5062326;28;20121;-56
2023/02/09 06:02:37;;;;;;;31.08;14.75;;;;;;;-7.32;100.00;98685.91;5056520;28;20055;-59
2023/02/09 06:05:04;;;;;;;29.00;14.18;;;;;;;-7.38;100.00;98684.53;5060776;28;20044;-58
2023/02/09 06:07:30;;;;;;;32.40;14.82;;;;;;;-7.31;100.00;98691.09;5062771;28;20177;-59
2023/02/09 06:09:57;;;;;;;31.38;15.85;;;;;;;-7.27;99.69;98694.34;5057385;28;20029;-60
2023/02/09 06:12:24;;;;;;;30.42;15.75;;;;;;;-7.20;100.00;98700.03;5061103;28;20032;-60
2023/02/09 06:14:50;;;;;;;30.48;14.95;;;;;;;-7.50;97.40;98696.75;5056729;28;20128;-60
2023/02/09 06:17:17;;;;;;;24.00;12.98;;;;;;;-7.48;99.80;98694.03;5059211;28;20106;-60
2023/02/09 06:19:43;;;;;;;23.83;13.07;;;;;;;-7.54;100.00;98695.28;5054730;28;20108;-59
2023/02/09 06:22:09;;;;;;;27.38;13.32;;;;;;;-7.73;98.45;98704.41;5054306;28;20044;-59
2023/02/09 06:24:36;;;;;;;27.27;14.00;;;;;;;-7.70;100.00;98703.38;5058072;28;20144;-60
2023/02/09 06:27:02;;;;;;;27.42;13.77;;;;;;;-7.71;100.00;98706.91;5055545;28;20134;-58
2023/02/09 06:29:30;;;;;;;26.05;13.50;;;;;;;-7.64;100.00;98705.56;5055856;28;20062;-60
2023/02/09 06:31:56;;;;;;;59.83;31.85;;;;;;;-7.71;100.00;98712.19;5053247;28;20048;-59
2023/02/09 06:34:24;;;;;;;39.33;18.02;;;;;;;-7.65;100.00;98709.16;5057911;28;20116;-58
2023/02/09 06:36:50;;;;;;;47.17;22.27;;;;;;;-7.54;99.87;98711.06;5055840;28;20080;-59
2023/02/09 06:39:17;;;;;;;29.75;15.07;;;;;;;-7.49;100.00;98724.75;5053304;28;20102;-60
2023/02/09 06:41:44;;;;;;;25.77;14.65;;;;;;;-7.38;100.00;98729.28;5056888;28;20044;-59
2023/02/09 06:44:11;;;;;;;53.13;24.42;;;;;;;-7.26;100.00;98738.13;5054316;28;20044;-60
2023/02/09 06:46:38;;;;;;;32.45;17.05;;;;;;;-7.26;100.00;98738.13;5061122;28;20095;-59
2023/02/09 06:49:05;;;;;;;33.05;18.05;;;;;;;-7.21;100.00;98730.78;5059256;28;20036;-59
2023/02/09 06:51:31;;;;;;;26.27;15.02;;;;;;;-7.11;100.00;98728.34;5059294;28;20147;-59
2023/02/09 06:53:58;;;;;;;27.00;13.00;;;;;;;-6.94;99.13;98724.56;5056343;28;20040;-57
2023/02/09 06:56:24;;;;;;;35.97;19.13;;;;;;;-6.96;98.51;98726.44;5056640;28;20639;-59
2023/02/09 06:58:51;;;;;;;38.05;19.70;;;;;;;-7.18;100.00;98722.66;5055146;28;20098;-57
2023/02/09 07:01:17;;;;;;;24.92;14.93;;;;;;;-7.00;99.10;98726.78;5056219;28;20101;-58
2023/02/09 07:03:44;;;;;;;28.70;14.82;;;;;;;-6.94;98.99;98721.91;5056109;28;20041;-58
2023/02/09 07:06:16;;;;;;;31.92;15.13;;;;;;;-6.89;98.63;98729.50;5053523;28;20045;-58
2023/02/09 07:08:44;;;;;;;27.35;13.93;;;;;;;-6.88;97.81;98733.81;5056070;28;20123;-60
2023/02/09 07:11:14;;;;;;;32.00;16.15;;;;;;;-6.87;97.75;98740.78;5054561;28;20491;-59
2023/02/09 07:13:41;;;;;;;29.45;14.27;;;;;;;-6.79;98.01;98741.09;5053929;28;21281;-54
2023/02/09 07:16:09;;;;;;;33.85;16.10;;;;;;;-6.70;97.79;98739.59;5055957;28;20056;-55
2023/02/09 07:18:36;;;;;;;29.13;15.60;;;;;;;-6.72;97.74;98740.63;5056447;28;20039;-52
2023/02/09 07:21:06;;;;;;;35.75;15.00;;;;;;;-6.77;97.78;98738.34;5051950;28;20048;-57
2023/02/09 07:23:33;;;;;;;29.25;15.35;;;;;;;-6.80;98.14;98735.91;5053669;28;20071;-58
2023/02/09 07:26:02;;;;;;;35.40;15.30;;;;;;;-6.94;99.17;98737.72;5050204;28;20085;-58
2023/02/09 07:28:28;;;;;;;29.15;15.77;;;;;;;-6.85;99.22;98745.94;5052990;28;20048;-56
2023/02/09 07:31:01;;;;;;;36.65;16.88;;;;;;;-6.81;99.01;98750.03;5049544;28;20036;-57
2023/02/09 07:33:28;;;;;;;32.28;16.23;;;;;;;-6.95;99.80;98751.00;5050512;28;20040;-58
2023/02/09 07:35:54;;;;;;;37.45;17.58;;;;;;;-6.82;99.89;98745.72;5058544;28;20515;-58
2023/02/09 07:38:21;;;;;;;29.45;16.45;;;;;;;-6.76;99.72;98752.34;5055886;28;20045;-58
2023/02/09 07:40:48;;;;;;;34.47;16.42;;;;;;;-6.73;98.80;98755.63;5051315;28;20116;-58
2023/02/09 07:43:14;;;;;;;32.08;17.52;;;;;;;-6.77;98.57;98759.41;5059342;28;20048;-58
2023/02/09 07:45:41;;;;;;;38.83;23.25;;;;;;;-6.62;98.97;98762.78;5055979;28;20041;-58
2023/02/09 07:48:10;;;;;;;33.42;17.38;;;;;;;-6.58;98.80;98758.13;5054261;28;20487;-58
2023/02/09 07:50:37;;;;;;;41.83;19.85;;;;;;;-6.63;98.66;98752.34;5054675;28;20045;-58
2023/02/09 07:53:03;;;;;;;32.40;16.60;;;;;;;-6.43;99.41;98748.28;5059105;28;20067;-58
2023/02/09 07:55:29;;;;;;;30.90;17.13;;;;;;;-6.42;100.00;98748.19;5056818;28;20041;-58
2023/02/09 07:57:56;;;;;;;40.83;18.60;;;;;;;-6.47;98.46;98760.00;5056712;28;20123;-57
2023/02/09 08:00:23;;;;;;;35.42;17.40;;;;;;;-6.31;98.70;98755.31;5055381;28;20080;-53
2023/02/09 08:02:49;;;;;;;29.55;16.45;;;;;;;-6.35;98.88;98756.50;5051053;28;20640;-55
2023/02/09 08:05:24;;;;;;;43.17;19.60;;;;;;;-6.40;99.14;98762.09;5056816;28;20099;-51
2023/02/09 08:07:52;;;;;;;40.80;20.08;;;;;;;-6.30;99.36;98761.44;5061412;28;20159;-53
2023/02/09 08:10:18;;;;;;;31.42;17.02;;;;;;;-6.16;99.60;98755.19;5052584;28;20156;-52
2023/02/09 08:13:01;;;;;;;30.73;17.08;;;;;;;-6.00;98.11;98763.63;5054726;28;20105;-56
2023/02/09 08:15:36;;;;;;;34.35;18.77;;;;;;;-6.04;97.80;98767.44;5064492;28;20067;-56
2023/02/09 08:18:09;;;;;;;35.38;17.23;;;;;;;-6.01;97.63;98774.31;5061623;28;20048;-55
2023/02/09 08:20:39;;;;;;;30.00;16.63;;;;;;;-5.94;97.61;98779.97;5062445;28;20037;-56
2023/02/09 08:23:14;;;;;;;32.97;18.02;;;;;;;-5.77;97.29;98766.38;5060886;28;20123;-56
2023/02/09 08:25:41;;;;;;;34.08;18.50;;;;;;;-5.66;97.08;98764.75;5057201;28;20048;-57
2023/02/09 08:28:07;;;;;;;31.75;17.23;;;;;;;-5.59;96.33;98765.97;5066137;28;20083;-57
2023/02/09 08:30:34;;;;;;;41.13;20.77;;;;;;;-5.58;96.17;98767.66;5055481;28;20628;-57
2023/02/09 08:33:01;;;;;;;78.03;34.83;;;;;;;-5.50;95.67;98773.19;5058112;28;20127;-57
2023/02/09 08:35:27;;;;;;;69.10;30.13;;;;;;;-5.35;96.15;98765.94;5054244;28;20130;-59
2023/02/09 08:38:01;;;;;;;45.63;21.55;;;;;;;-5.29;94.85;98767.28;5060015;28;20052;-60
2023/02/09 08:40:28;;;;;;;37.05;18.17;;;;;;;-5.21;95.67;98769.31;5058571;28;20040;-58
2023/02/09 08:42:55;;;;;;;32.60;15.73;;;;;;;-5.21;95.40;98764.03;5058363;28;20048;-60
2023/02/09 08:45:21;;;;;;;34.08;16.70;;;;;;;-5.09;94.64;98760.47;5061890;28;20704;-59
2023/02/09 08:47:48;;;;;;;27.88;16.40;;;;;;;-4.99;94.50;98765.91;5061961;28;20044;-58
2023/02/09 08:50:15;;;;;;;31.08;17.27;;;;;;;-4.97;94.28;98768.41;5060412;28;20112;-61
2023/02/09 08:52:42;;;;;;;34.20;17.40;;;;;;;-4.87;94.17;98765.91;5056699;28;20095;-59
2023/02/09 08:55:08;;;;;;;35.65;19.33;;;;;;;-4.80;93.99;98761.00;5060448;28;20057;-58
2023/02/09 08:57:35;;;;;;;31.70;16.52;;;;;;;-4.75;93.11;98764.13;5061520;28;20068;-59
2023/02/09 09:00:10;;;;;;;30.17;14.95;;;;;;;-4.66;92.79;98762.53;5054285;28;20142;-59
2023/02/09 09:02:36;;;;;;;29.50;17.52;;;;;;;-4.48;92.14;98765.56;5035933;28;20072;-59
2023/02/09 09:05:03;;;;;;;38.08;17.80;;;;;;;-4.35;91.61;98763.63;5056528;28;20430;-59
2023/02/09 09:07:30;;;;;;;33.20;17.98;;;;;;;-4.23;90.96;98764.47;5064758;28;20649;-59
2023/02/09 09:09:56;;;;;;;32.05;17.15;;;;;;;-4.08;90.32;98769.47;5058921;28;20045;-61
2023/02/09 09:12:23;;;;;;;34.03;15.20;;;;;;;-3.98;90.28;98762.47;5061451;28;20106;-59
2023/02/09 09:14:50;;;;;;;30.25;16.42;;;;;;;-3.83;90.23;98764.84;5059734;28;20048;-59
2023/02/09 09:17:16;;;;;;;28.60;15.73;;;;;;;-3.74;88.97;98764.09;5056494;28;20048;-59
2023/02/09 09:19:43;;;;;;;35.03;16.73;;;;;;;-3.62;89.09;98756.94;5058087;28;20657;-59
2023/02/09 09:22:09;;;;;;;31.65;16.05;;;;;;;-3.52;88.85;98767.63;5056433;28;20124;-56
2023/02/09 09:24:39;;;;;;;30.98;16.58;;;;;;;-3.39;89.16;98764.81;5055989;28;20124;-57
2023/02/09 09:27:07;;;;;;;36.38;17.00;;;;;;;-3.32;88.25;98768.59;5056715;28;20068;-60
2023/02/09 09:29:35;;;;;;;34.15;17.75;;;;;;;-3.16;88.42;98772.63;5057461;28;20151;-60
2023/02/09 09:32:02;;;;;;;30.67;16.73;;;;;;;-3.02;87.46;98776.75;5062090;28;20064;-58
2023/02/09 09:34:29;;;;;;;32.20;15.68;;;;;;;-2.83;88.31;98770.75;5057154;28;20477;-58
2023/02/09 09:36:55;;;;;;;32.03;15.38;;;;;;;-2.70;88.21;98775.81;5061872;28;20051;-58
2023/02/09 09:39:23;;;;;;;31.33;14.77;;;;;;;-2.63;86.54;98768.16;5061844;28;20040;-56
2023/02/09 09:41:54;;;;;;;28.23;14.13;;;;;;;-2.42;86.17;98780.53;5056915;28;20238;-59
2023/02/09 09:44:33;;;;;;;;;;;;;;;-2.23;84.82;98783.28;5060479;28;20044;-59
2023/02/09 09:47:07;;;;;;;26.85;14.02;;;;;;;-2.14;81.70;98772.81;5062626;28;20374;-59
2023/02/09 09:49:36;;;;;;;25.52;13.73;;;;;;;-2.07;81.19;98786.41;5060886;28;20441;-60
2023/02/09 09:52:30;;;;;;;27.77;14.57;;;;;;;-1.95;80.53;98785.31;5058238;28;20048;-60
2023/02/09 09:55:00;;;;;;;28.10;12.63;;;;;;;-1.87;80.36;98788.13;5058067;28;20139;-61
2023/02/09 09:57:28;;;;;;;25.67;13.27;;;;;;;-1.81;78.82;98788.53;5057119;28;20127;-60
2023/02/09 09:59:55;;;;;;;20.67;11.07;;;;;;;-1.72;78.33;98788.56;5059136;28;20123;-60
2023/02/09 10:02:33;;;;;;;22.42;12.07;;;;;;;-1.70;76.96;98786.59;5061546;28;20044;-61
2023/02/09 10:05:20;;;;;;;21.48;11.55;;;;;;;-1.62;78.63;98790.38;5057470;28;20036;-59
2023/02/09 10:08:05;;;;;;;22.30;11.45;;;;;;;-1.48;75.52;98799.75;5059748;28;20037;-60
2023/02/09 10:10:51;;;;;;;25.40;12.48;;;;;;;-1.41;72.88;98792.91;5062575;28;20146;-61
2023/02/09 10:13:24;;;;;;;21.00;11.65;;;;;;;-1.32;71.15;98801.88;5061046;28;20098;-60
2023/02/09 10:15:53;;;;;;;22.27;11.80;;;;;;;-1.26;71.47;98793.31;5055373;28;20119;-61
2023/02/09 10:18:24;;;;;;;21.13;11.45;;;;;;;-1.27;72.42;98785.47;5062261;28;20562;-61
2023/02/09 10:20:54;;;;;;;22.38;11.35;;;;;;;-1.24;71.90;98791.38;5056478;28;20093;-60
2023/02/09 10:23:27;;;;;;;25.15;11.90;;;;;;;-1.20;72.84;98789.25;5050505;28;20033;-59
2023/02/09 10:26:01;;;;;;;25.05;12.50;;;;;;;-1.20;72.08;98792.78;5057946;28;20040;-60
2023/02/09 10:28:31;;;;;;;22.67;11.55;;;;;;;-1.19;72.13;98794.44;5057266;28;20115;-61
2023/02/09 10:31:01;;;;;;;25.80;12.68;;;;;;;-1.12;71.34;98789.41;5063537;28;20028;-59
2023/02/09 10:33:39;;;;;;;22.33;11.70;;;;;;;-1.13;71.62;98785.06;5056301;28;20051;-60
2023/02/09 10:36:22;;;;;;;23.58;12.98;;;;;;;-1.11;70.49;98791.06;5059046;28;20094;-60
2023/02/09 10:38:49;;;;;;;22.13;11.55;;;;;;;-1.01;70.15;98793.72;5059122;28;20074;-59
2023/02/09 10:41:16;;;;;;;25.30;12.30;;;;;;;-0.95;70.60;98779.03;5056949;28;20067;-60
2023/02/09 10:43:42;;;;;;;23.02;11.95;;;;;;;-0.82;70.95;98778.69;5058546;28;20114;-60
2023/02/09 10:46:15;;;;;;;26.92;13.00;;;;;;;-0.75;69.97;98785.13;5060127;28;20079;-60
2023/02/09 10:48:44;;;;;;;31.35;14.02;;;;;;;-0.58;68.49;98780.06;5058032;28;20040;-60
2023/02/09 10:51:28;;;;;;;27.08;11.73;;;;;;;-0.55;68.03;98790.41;5058557;28;20090;-59
2023/02/09 10:54:17;;;;;;;23.35;12.85;;;;;;;-0.44;67.82;98786.72;5059956;28;20047;-61
2023/02/09 10:56:47;;;;;;;33.80;13.73;;;;;;;-0.46;68.47;98780.69;5054588;28;20610;-60
2023/02/09 10:59:20;;;;;;;23.35;12.15;;;;;;;-0.42;68.78;98780.28;5061036;28;20139;-60
2023/02/09 11:01:54;;;;;;;20.33;10.95;;;;;;;-0.34;68.43;98770.72;5057491;28;20075;-60
2023/02/09 11:04:23;;;;;;;25.95;13.68;;;;;;;-0.22;68.15;98774.84;5064912;28;20051;-61
2023/02/09 11:06:59;;;;;;;24.30;13.15;;;;;;;-0.10;68.14;98777.31;5056639;28;20040;-61
2023/02/09 11:09:40;;;;;;;27.13;12.65;;;;;;;-0.04;67.53;98768.75;5060683;28;20048;-61
2023/02/09 11:12:11;;;;;;;25.63;12.57;;;;;;;0.01;68.40;98763.81;5058627;28;20562;-61
2023/02/09 11:14:38;;;;;;;21.75;12.25;;;;;;;0.13;68.68;98764.44;5058719;28;20040;-61
2023/02/09 11:17:26;;;;;;;31.63;14.60;;;;;;;0.19;68.01;98765.66;5057061;28;20514;-57
2023/02/09 11:20:09;;;;;;;27.23;13.27;;;;;;;0.09;68.56;98753.25;5055747;28;20115;-60
2023/02/09 11:22:47;;;;;;;21.67;13.18;;;;;;;0.07;68.32;98757.06;5047733;28;20481;-61
2023/02/09 11:25:23;;;;;;;30.20;13.73;;;;;;;0.14;68.36;98750.13;5049784;28;20052;-59
2023/02/09 11:28:10;;;;;;;24.30;13.05;;;;;;;0.19;67.86;98749.69;5059235;28;20929;-60
2023/02/09 11:31:01;;;;;;;24.17;12.30;;;;;;;0.32;66.78;98743.97;5051692;28;20045;-60
2023/02/09 11:33:46;;;;;;;24.20;13.05;;;;;;;0.47;66.59;98739.78;5057770;28;20103;-58